Time;durP1;ratioP1;P1;durP2;ratioP2;P2;SDS_P1;SDS_P2;PMS_P1;PMS_P2;Temp;Humidity;BMP_temperature;BMP_pressure;BME280_temperature;BME280_humidity;BME280_pressure;Samples;Min_cycle;Max_cycle;Signal;HPM_P1;HPM_P2
2022/01/13 00:02:43;;;;;;;;;;;;;;;-3.45;83.11;97902.97;10290491;28;97904;-72
2022/01/13 00:07:46;;;;;;;;;;;;;;;-3.52;82.67;97906.47;10294424;28;98075;-72
2022/01/13 00:12:56;;;;;;;;;;;;;;;-3.63;83.05;97905.78;10293748;28;96921;-72
2022/01/13 00:18:10;;;;;;;;;;;;;;;-3.67;81.77;97907.53;10278058;28;96753;-73
2022/01/13 00:28:32;;;;;;;;;;;;;;;-3.86;83.47;97913.72;10293096;28;96821;-74
2022/01/13 00:33:38;;;;;;;;;;;;;;;-3.89;81.92;97917.16;10290456;28;96719;-74
2022/01/13 00:38:40;;;;;;;;;;;;;;;-4.09;82.84;97919.09;10294115;28;97062;-75
2022/01/13 00:43:46;;;;;;;;;;;;;;;-4.20;83.05;97907.28;10293375;28;97011;-75
2022/01/13 00:48:51;;;;;;;;;;;;;;;-4.17;83.25;97902.16;10292349;28;97052;-75
2022/01/13 00:53:55;;;;;;;;;;;;;;;-4.28;82.61;97913.31;10291834;28;96839;-75
2022/01/13 00:58:57;;;;;;;;;;;;;;;-4.33;81.97;97908.25;10291383;28;97143;-74
2022/01/13 01:04:02;;;;;;;;;;;;;;;-4.41;82.50;97917.72;10292029;28;96927;-76
2022/01/13 01:09:05;;;;;;;;;;;;;;;-4.44;82.08;97925.41;10290843;28;97489;-75
2022/01/13 01:14:08;;;;;;;;;;;;;;;-4.52;83.47;97921.22;10294768;28;96955;-74
2022/01/13 01:19:13;;;;;;;;;;;;;;;-4.61;83.65;97926.38;10292483;28;96911;-75
2022/01/13 01:29:50;;;;;;;;;;;;;;;-4.66;83.21;97943.41;10291603;28;96998;-73
2022/01/13 01:35:01;;;;;;;;;;;;;;;-4.75;83.98;97943.50;10293071;28;96960;-72
2022/01/13 01:40:05;;;;;;;;;;;;;;;-4.84;83.84;97939.31;10292432;28;96880;-72
2022/01/13 01:45:11;;;;;;;;;;;;;;;-4.75;83.28;97944.34;10288853;28;96965;-72
2022/01/13 01:50:18;;;;;;;;;;;;;;;-4.78;83.50;97943.53;10294178;28;96917;-72
2022/01/13 01:55:21;;;;;;;;;;;;;;;-4.79;82.95;97944.41;10297225;28;97000;-72
2022/01/13 02:00:26;;;;;;;;;;;;;;;-4.78;83.10;97948.63;10291934;28;96839;-73
2022/01/13 02:05:30;;;;;;;;;;;;;;;-4.85;83.21;97942.72;10308236;28;96911;-72
2022/01/13 02:10:33;;;;;;;;;;;;;;;-4.80;83.79;97935.03;10303807;28;97025;-72
2022/01/13 02:15:47;;;;;;;;;;;;;;;-4.68;84.18;97919.63;10291264;28;97138;-72
2022/01/13 02:20:52;;;;;;;;;;;;;;;-4.51;83.01;97915.22;10295061;28;97123;-73
2022/01/13 02:25:55;;;;;;;;;;;;;;;-4.42;83.20;97918.56;10294096;28;96905;-72
2022/01/13 02:30:58;;;;;;;;;;;;;;;-4.44;82.90;97917.75;10296295;28;97121;-72
2022/01/13 02:36:02;;;;;;;;;;;;;;;-4.33;84.05;97911.69;10291528;28;101762;-73
2022/01/13 02:41:05;;;;;;;;;;;;;;;-4.25;84.37;97914.13;10292275;28;96897;-73
2022/01/13 02:46:29;;;;;;;;;;;;;;;-4.26;82.45;97894.59;10289036;28;99611;-73
2022/01/13 02:51:34;;;;;;;;;;;;;;;-4.33;82.81;97901.47;10292961;28;97155;-72
2022/01/13 02:56:37;;;;;;;;;;;;;;;-4.31;83.77;97904.00;10298287;28;97389;-72
2022/01/13 03:01:40;;;;;;;;;;;;;;;-4.24;82.94;97908.19;10294033;28;97269;-72
2022/01/13 03:06:44;;;;;;;;;;;;;;;-4.22;84.23;97924.31;10293324;28;96864;-73
2022/01/13 03:11:47;;;;;;;;;;;;;;;-4.16;84.24;97923.41;10294698;28;97313;-72
2022/01/13 03:16:50;;;;;;;;;;;;;;;-4.13;82.86;97918.28;10295564;28;97130;-73
2022/01/13 03:21:54;;;;;;;;;;;;;;;-4.20;83.30;97927.69;10295823;28;96904;-74
2022/01/13 03:26:56;;;;;;;;;;;;;;;-4.26;82.97;97937.97;10276731;28;98543;-74
2022/01/13 03:31:59;;;;;;;;;;;;;;;-4.37;82.73;97943.16;10299328;28;96801;-75
2022/01/13 03:37:03;;;;;;;;;;;;;;;-4.49;83.99;97938.19;10295061;28;97355;-75
2022/01/13 03:42:06;;;;;;;;;;;;;;;-4.51;84.12;97942.47;10292885;28;98159;-76
2022/01/13 03:47:10;;;;;;;;;;;;;;;-4.54;84.19;97935.69;10297376;28;97771;-72
2022/01/13 03:52:34;;;;;;;;;;;;;;;-4.50;83.74;97934.78;10294868;28;97201;-72
2022/01/13 03:57:55;;;;;;;;;;;;;;;-4.59;83.34;97923.81;10291988;28;97405;-72
2022/01/13 04:02:58;;;;;;;;;;;;;;;-4.72;83.60;97928.19;10276155;28;96829;-72
2022/01/13 04:08:01;;;;;;;;;;;;;;;-4.77;83.95;97932.47;10295281;28;96923;-72
2022/01/13 04:13:11;;;;;;;;;;;;;;;-4.82;84.47;97936.75;10294189;28;96907;-73
2022/01/13 04:18:14;;;;;;;;;;;;;;;-4.87;83.87;97930.00;10290416;28;97138;-72
2022/01/13 04:23:17;;;;;;;;;;;;;;;-4.84;83.42;97928.28;10296110;28;97108;-72
2022/01/13 04:28:26;;;;;;;;;;;;;;;-4.87;84.04;97919.81;10293612;28;96763;-72
2022/01/13 04:33:29;;;;;;;;;;;;;;;-4.79;84.10;97911.25;10290381;28;96947;-72
2022/01/13 04:38:32;;;;;;;;;;;;;;;-4.83;83.76;97924.88;10296062;28;98545;-72
2022/01/13 04:43:36;;;;;;;;;;;;;;;-4.88;84.01;97909.63;10293188;28;96781;-72
2022/01/13 04:48:38;;;;;;;;;;;;;;;-4.90;83.67;97907.09;10292360;28;96767;-72
2022/01/13 04:53:41;;;;;;;;;;;;;;;-5.01;83.74;97911.44;10292584;28;97668;-73
2022/01/13 04:58:45;;;;;;;;;;;;;;;-5.17;83.53;97927.69;10291277;28;98035;-72
2022/01/13 05:03:48;;;;;;;;;;;;;;;-5.23;83.71;97920.09;10291493;28;97061;-72
2022/01/13 05:08:51;;;;;;;;;;;;;;;-5.23;83.81;97930.28;10310453;28;97156;-73
2022/01/13 05:13:55;;;;;;;;;;;;;;;-5.28;83.87;97915.88;10292364;28;96902;-72
2022/01/13 05:19:11;;;;;;;;;;;;;;;-5.22;83.51;97914.97;10292329;28;97146;-72
2022/01/13 05:24:14;;;;;;;;;;;;;;;-5.22;83.16;97919.25;10288711;28;96696;-72
2022/01/13 05:29:20;;;;;;;;;;;;;;;-5.27;83.61;97924.34;10301325;28;98376;-72
2022/01/13 05:34:23;;;;;;;;;;;;;;;-5.22;83.64;97926.88;10294978;28;96897;-73
2022/01/13 05:39:44;;;;;;;;;;;;;;;-5.29;83.92;97921.81;10297735;28;96928;-72
2022/01/13 05:44:48;;;;;;;;;;;;;;;-5.32;83.79;97919.31;10297939;28;96944;-71
2022/01/13 05:49:51;;;;;;;;;;;;;;;-5.32;83.85;97919.31;10298977;28;97607;-72
2022/01/13 05:54:54;;;;;;;;;;;;;;;-5.32;83.94;97916.75;10298441;28;96745;-75
2022/01/13 05:59:59;;;;;;;;;;;;;;;-5.35;83.37;97921.00;10295052;28;96782;-72
2022/01/13 06:05:02;;;;;;;;;;;;;;;-5.39;83.18;97914.25;10300102;28;97265;-72
2022/01/13 06:10:05;;;;;;;;;;;;;;;-5.43;84.04;97905.78;10298293;28;96946;-72
2022/01/13 06:15:10;;;;;;;;;;;;;;;-5.45;84.12;97907.50;10295631;28;96993;-72
2022/01/13 06:20:13;;;;;;;;;;;;;;;-5.47;83.49;97897.31;10300465;28;97352;-72
2022/01/13 06:25:17;;;;;;;;;;;;;;;-5.42;83.54;97892.19;10297313;28;99475;-72
2022/01/13 06:30:21;;;;;;;;;;;;;;;-5.50;83.60;97904.13;10293321;28;96729;-72
2022/01/13 06:35:23;;;;;;;;;;;;;;;-5.51;83.34;97902.41;10299263;28;96872;-72
2022/01/13 06:40:26;;;;;;;;;;;;;;;-5.49;83.63;97908.34;10295329;28;98155;-72
2022/01/13 06:45:31;;;;;;;;;;;;;;;-5.51;83.68;97899.88;10294731;28;97893;-72
2022/01/13 06:50:33;;;;;;;;;;;;;;;-5.50;83.57;97896.47;10294545;28;97099;-72
2022/01/13 06:55:36;;;;;;;;;;;;;;;-5.54;83.47;97890.56;10296657;28;96806;-72
2022/01/13 07:00:41;;;;;;;;;;;;;;;-5.55;83.13;97898.22;10292692;28;96806;-72
2022/01/13 07:05:43;;;;;;;;;;;;;;;-5.62;83.75;97900.78;10295753;28;98015;-73
2022/01/13 07:10:46;;;;;;;;;;;;;;;-5.65;83.59;97921.19;10297010;28;97024;-72
2022/01/13 07:15:50;;;;;;;;;;;;;;;-5.65;83.71;97927.94;10294155;28;96924;-72
2022/01/13 07:20:53;;;;;;;;;;;;;;;-5.67;84.02;97925.41;10294055;28;97087;-72
2022/01/13 07:25:56;;;;;;;;;;;;;;;-5.58;84.00;97933.88;10295556;28;96880;-72
2022/01/13 07:31:00;;;;;;;;;;;;;;;-5.29;84.63;97926.91;10294313;28;96779;-72
2022/01/13 07:36:03;;;;;;;;;;;;;;;-5.19;83.91;97937.06;10293670;28;96950;-72
2022/01/13 07:41:06;;;;;;;;;;;;;;;-4.99;84.13;97945.41;10296071;28;96892;-72
2022/01/13 07:46:10;;;;;;;;;;;;;;;-4.85;84.10;97968.22;10294835;28;97197;-72
2022/01/13 07:51:12;;;;;;;;;;;;;;;-4.69;84.23;97968.97;10291194;28;97268;-72
2022/01/13 07:56:15;;;;;;;;;;;;;;;-4.54;84.58;97966.28;10296788;28;96947;-72
2022/01/13 08:01:19;;;;;;;;;;;;;;;-4.41;83.44;97979.78;10293273;28;96782;-72
2022/01/13 08:06:22;;;;;;;;;;;;;;;-4.33;84.48;97993.31;10289913;28;97081;-72
2022/01/13 08:11:25;;;;;;;;;;;;;;;-4.23;83.03;97981.31;10309662;28;96947;-73
2022/01/13 08:16:33;;;;;;;;;;;;;;;-4.18;84.31;97971.91;10295815;28;97980;-72
2022/01/13 08:21:36;;;;;;;;;;;;;;;-4.12;83.30;97966.75;10290997;28;96768;-72
2022/01/13 08:26:39;;;;;;;;;;;;;;;-4.08;83.63;97987.16;10295340;28;96846;-72
2022/01/13 08:31:45;;;;;;;;;;;;;;;-4.06;83.27;97980.31;10292965;28;97489;-75
2022/01/13 08:36:48;;;;;;;;;;;;;;;-4.04;83.16;97979.44;10292497;28;96993;-74
2022/01/13 08:41:51;;;;;;;;;;;;;;;-3.96;84.66;97964.88;10292909;28;96969;-74
2022/01/13 08:46:55;;;;;;;;;;;;;;;-3.86;83.09;97977.53;10294556;28;96858;-75
2022/01/13 08:52:00;;;;;;;;;;;;;;;-3.80;83.25;97980.88;10293582;28;96713;-74
2022/01/13 08:57:06;;;;;;;;;;;;;;;-3.66;83.12;97974.78;10290733;28;96895;-72
2022/01/13 09:02:10;;;;;;;;;;;;;;;-3.55;84.22;97978.03;10292518;28;97067;-72
2022/01/13 09:07:13;;;;;;;;;;;;;;;-3.43;83.65;97990.66;10299133;28;99556;-73
2022/01/13 09:12:36;;;;;;;;;;;;;;;-3.29;83.66;97989.66;10296621;28;96758;-72
2022/01/13 09:17:42;;;;;;;;;;;;;;;-3.14;83.16;97986.06;10301605;28;96898;-72
2022/01/13 09:22:44;;;;;;;;;;;;;;;-3.00;83.81;97982.44;10300545;28;98080;-73
2022/01/13 09:27:47;;;;;;;;;;;;;;;-2.92;84.33;97973.78;10284424;28;98339;-72
2022/01/13 09:32:51;;;;;;;;;;;;;;;-2.87;84.08;97989.91;10294768;28;97011;-72
2022/01/13 09:37:54;;;;;;;;;;;;;;;-2.81;83.09;97997.53;10300192;28;97105;-73
2022/01/13 09:42:56;;;;;;;;;;;;;;;-2.75;83.72;98001.69;10294109;28;97088;-72
2022/01/13 09:48:00;;;;;;;;;;;;;;;-2.68;84.14;98004.16;10296437;28;97157;-73
2022/01/13 09:53:03;;;;;;;;;;;;;;;-2.56;83.82;98009.94;10298874;28;96858;-72
2022/01/13 09:58:10;;;;;;;;;;;;;;;-2.52;83.53;98011.59;10289588;28;97090;-72
2022/01/13 10:03:15;;;;;;;;;;;;;;;-2.42;83.26;97996.06;10296110;28;96874;-73
2022/01/13 10:08:20;;;;;;;;;;;;;;;-2.31;84.27;97985.66;10300434;28;97052;-72
2022/01/13 10:13:28;;;;;;;;;;;;;;;-2.23;84.23;97994.06;10297135;28;97107;-72
2022/01/13 10:18:48;;;;;;;;;;;;;;;-2.18;83.51;97977.75;10290454;28;96894;-72
2022/01/13 10:24:02;;;;;;;;;;;;;;;-2.01;83.45;97988.53;10294151;28;96922;-72
2022/01/13 10:29:07;;;;;;;;;;;;;;;-1.86;83.23;97985.72;10294878;28;99762;-72
2022/01/13 10:34:16;;;;;;;;;;;;;;;-1.78;83.32;97969.34;10290950;28;97421;-72
2022/01/13 10:39:20;;;;;;;;;;;;;;;-1.70;82.85;97976.00;10289974;28;96760;-72
2022/01/13 10:44:22;;;;;;;;;;;;;;;-1.66;83.17;97966.53;10291687;28;97837;-72
2022/01/13 10:49:33;;;;;;;;;;;;;;;-1.54;84.58;97958.59;10288654;28;96864;-73
2022/01/13 10:54:36;;;;;;;;;;;;;;;-1.38;83.70;97955.72;10287810;28;97183;-72
2022/01/13 10:59:39;;;;;;;;;;;;;;;-1.23;83.92;97975.91;10289119;28;96899;-73
2022/01/13 11:04:42;;;;;;;;;;;;;;;-1.03;84.36;97961.81;10287847;28;97599;-73
2022/01/13 11:09:52;;;;;;;;;;;;;;;-0.98;83.97;97980.53;10287877;28;96988;-72
2022/01/13 11:15:00;;;;;;;;;;;;;;;-0.96;83.38;97968.50;10289751;28;97101;-73
2022/01/13 11:20:04;;;;;;;;;;;;;;;-0.92;84.12;97960.72;10294738;28;96854;-72
2022/01/13 11:25:09;;;;;;;;;;;;;;;-0.95;83.59;97957.38;10286943;28;96946;-72
2022/01/13 11:30:14;;;;;;;;;;;;;;;-0.98;83.53;97942.03;10287291;28;96831;-73
2022/01/13 11:35:20;;;;;;;;;;;;;;;-0.92;83.44;97939.34;10289982;28;97142;-72
2022/01/13 11:40:38;;;;;;;;;;;;;;;-0.85;83.51;97938.31;10283634;28;97238;-72
2022/01/13 11:45:43;;;;;;;;;;;;;;;-0.76;83.20;97935.53;10283614;28;97447;-72
2022/01/13 11:50:51;;;;;;;;;;;;;;;-0.69;83.02;97936.22;10285988;28;98409;-72
2022/01/13 11:55:55;;;;;;;;;;;;;;;-0.67;82.78;97928.50;10285389;28;97283;-73
2022/01/13 12:01:21;;;;;;;;;;;;;;;-0.54;82.87;97914.50;10290701;28;98856;-72
2022/01/13 12:06:39;;;;;;;;;;;;;;;-0.46;82.85;97906.59;10288811;28;97216;-73
2022/01/13 12:11:50;;;;;;;;;;;;;;;-0.46;82.64;97916.84;10293243;28;98060;-73
2022/01/13 12:16:56;;;;;;;;;;;;;;;-0.45;82.64;97903.16;10288369;28;97063;-73
2022/01/13 12:22:05;;;;;;;;;;;;;;;-0.41;82.61;97894.47;10283893;28;96760;-72
2022/01/13 12:27:07;;;;;;;;;;;;;;;-0.36;82.99;97888.34;10277559;28;97034;-73
2022/01/13 12:32:11;;;;;;;;;;;;;;;-0.27;83.01;97884.69;10290594;28;96939;-72
2022/01/13 12:37:21;;;;;;;;;;;;;;;-0.09;83.22;97885.06;10288078;28;97008;-72
2022/01/13 12:42:26;;;;;;;;;;;;;;;0.05;nan;97888.13;10288112;28;96884;-73
2022/01/13 12:47:31;;;;;;;;;;;;;;;0.20;83.29;97881.69;10288375;28;116371;-72
2022/01/13 12:52:34;;;;;;;;;;;;;;;0.21;82.87;97879.09;10286694;28;96830;-72
2022/01/13 12:57:43;;;;;;;;;;;;;;;0.37;83.38;97874.34;10286646;28;96861;-72
2022/01/13 13:02:55;;;;;;;;;;;;;;;0.47;83.67;97874.09;10288331;28;97203;-73
2022/01/13 13:07:58;;;;;;;;;;;;;;;0.59;82.52;97877.13;10288172;28;96823;-72
2022/01/13 13:13:01;;;;;;;;;;;;;;;0.67;83.10;97878.63;10286297;28;98221;-74
2022/01/13 13:18:05;;;;;;;;;;;;;;;0.63;82.52;97871.91;10286251;28;98366;-72
2022/01/13 13:23:10;;;;;;;;;;;;;;;0.40;81.62;97870.84;10284514;28;97618;-72
2022/01/13 13:28:20;;;;;;;;;;;;;;;0.52;83.04;97860.19;10292043;28;97106;-72
2022/01/13 13:33:31;;;;;;;;;;;;;;;0.60;82.65;97870.25;10288753;28;97240;-71
2022/01/13 13:38:45;;;;;;;;;;;;;;;0.41;82.14;97870.81;10286180;28;96772;-72
2022/01/13 13:43:48;;;;;;;;;;;;;;;0.56;82.98;97884.09;10285182;28;97302;-72
2022/01/13 13:48:52;;;;;;;;;;;;;;;0.61;83.06;97892.50;10286908;28;98407;-72
2022/01/13 13:54:14;;;;;;;;;;;;;;;0.64;81.98;97892.44;10282302;28;97175;-72
2022/01/13 13:59:20;;;;;;;;;;;;;;;0.65;82.93;97896.66;10296154;28;97178;-73
2022/01/13 14:04:36;;;;;;;;;;;;;;;0.79;83.02;97896.25;10288551;28;98239;-72
2022/01/13 14:09:40;;;;;;;;;;;;;;;0.94;81.89;97888.06;10281766;28;96801;-73
2022/01/13 14:14:43;;;;;;;;;;;;;;;1.01;82.76;97893.88;10282677;28;98421;-72
2022/01/13 14:20:00;;;;;;;;;;;;;;;1.06;82.63;97894.56;10289458;28;97566;-71
2022/01/13 14:25:09;;;;;;;;;;;;;;;1.13;82.80;97888.34;10291339;28;97750;-73
2022/01/13 14:30:11;;;;;;;;;;;;;;;1.22;82.51;97889.78;10286782;28;97433;-72
2022/01/13 14:35:14;;;;;;;;;;;;;;;1.30;81.98;97886.97;10294483;28;96937;-73
2022/01/13 14:40:18;;;;;;;;;;;;;;;1.33;81.81;97884.25;10289486;28;97285;-72
2022/01/13 14:45:23;;;;;;;;;;;;;;;1.38;81.91;97890.09;10286166;28;97183;-73
2022/01/13 14:50:25;;;;;;;;;;;;;;;1.41;82.41;97890.00;10287734;28;97895;-72
2022/01/13 14:55:29;;;;;;;;;;;;;;;1.48;82.32;97898.38;10289790;28;97936;-72
2022/01/13 15:00:32;;;;;;;;;;;;;;;1.49;82.52;97902.66;10286489;28;97914;-72
2022/01/13 15:05:35;;;;;;;;;;;;;;;1.45;81.61;97917.38;10290819;28;97287;-73
2022/01/13 15:10:39;;;;;;;;;;;;;;;1.43;81.81;97903.69;10289242;28;99766;-72
2022/01/13 15:15:42;;;;;;;;;;;;;;;1.45;81.74;97907.06;10288211;28;97159;-72
2022/01/13 15:20:45;;;;;;;;;;;;;;;1.38;82.19;97900.41;10289970;28;97071;-72
2022/01/13 15:25:49;;;;;;;;;;;;;;;1.32;82.19;97904.03;10288575;28;97041;-72
2022/01/13 15:30:52;;;;;;;;;;;;;;;1.33;82.41;97894.56;10284448;28;97331;-73
2022/01/13 15:35:55;;;;;;;;;;;;;;;1.32;82.15;97885.19;10284905;28;97121;-72
2022/01/13 15:40:59;;;;;;;;;;;;;;;1.27;81.76;97884.47;10283967;28;97282;-72
2022/01/13 15:46:04;;;;;;;;;;;;;;;1.17;82.14;97877.06;10284256;28;98018;-73
2022/01/13 15:51:13;;;;;;;;;;;;;;;0.97;81.72;97877.69;10282939;28;97092;-72
2022/01/13 15:56:18;;;;;;;;;;;;;;;0.74;81.63;97877.53;10284843;28;97311;-72
2022/01/13 16:01:20;;;;;;;;;;;;;;;0.57;81.46;97886.63;10285922;28;97193;-72
2022/01/13 16:06:23;;;;;;;;;;;;;;;0.39;80.98;97887.16;10281819;28;97368;-74
2022/01/13 16:11:28;;;;;;;;;;;;;;;0.23;81.19;97897.03;10287585;28;98512;-72
2022/01/13 16:16:32;;;;;;;;;;;;;;;0.00;81.10;97898.53;10284074;28;98546;-73
2022/01/13 16:21:35;;;;;;;;;;;;;;;-0.23;81.17;97899.16;10283011;28;97244;-72
2022/01/13 16:26:39;;;;;;;;;;;;;;;-0.56;81.46;97911.13;10285211;28;97404;-72
2022/01/13 16:31:42;;;;;;;;;;;;;;;-0.86;81.26;97913.53;10282253;28;97262;-72
2022/01/13 16:36:48;;;;;;;;;;;;;;;-1.13;81.52;97915.88;10282602;28;97195;-72
2022/01/13 16:41:52;;;;;;;;;;;;;;;-1.39;81.58;97925.84;10284553;28;97206;-72
2022/01/13 16:46:55;;;;;;;;;;;;;;;-1.67;82.56;97934.13;10280405;28;98111;-72
2022/01/13 16:51:57;;;;;;;;;;;;;;;-1.85;82.43;97931.06;10286252;28;97417;-72
2022/01/13 16:57:01;;;;;;;;;;;;;;;-1.97;82.04;97935.53;10283775;28;98101;-72
2022/01/13 17:02:05;;;;;;;;;;;;;;;-1.99;81.98;97942.41;10284480;28;97094;-71
2022/01/13 17:07:08;;;;;;;;;;;;;;;-2.06;82.57;97944.25;10285980;28;96835;-72
2022/01/13 17:12:12;;;;;;;;;;;;;;;-2.14;82.89;97948.66;10283439;28;97150;-72
2022/01/13 17:17:14;;;;;;;;;;;;;;;-2.21;82.10;97953.06;10287642;28;97197;-72
2022/01/13 17:22:18;;;;;;;;;;;;;;;-2.31;83.13;97951.53;10285814;28;97078;-72
2022/01/13 17:27:22;;;;;;;;;;;;;;;-2.49;82.20;97968.03;10292891;28;97123;-72
2022/01/13 17:32:26;;;;;;;;;;;;;;;-2.49;83.61;97970.59;10289632;28;97188;-72
2022/01/13 17:37:29;;;;;;;;;;;;;;;-2.45;82.52;97967.13;10291703;28;96985;-72
2022/01/13 17:42:34;;;;;;;;;;;;;;;-2.47;83.24;97976.50;10291513;28;96966;-72
2022/01/13 17:47:37;;;;;;;;;;;;;;;-2.48;82.18;97977.41;10291317;28;97228;-72
2022/01/13 17:52:39;;;;;;;;;;;;;;;-2.53;82.51;97971.50;10292712;28;97149;-72
2022/01/13 17:57:43;;;;;;;;;;;;;;;-2.58;82.27;97986.09;10289422;28;96922;-71
2022/01/13 18:02:46;;;;;;;;;;;;;;;-2.65;81.67;97993.84;10291348;28;99776;-73
2022/01/13 18:07:49;;;;;;;;;;;;;;;-2.72;81.77;98005.03;10290425;28;97527;-73
2022/01/13 18:12:56;;;;;;;;;;;;;;;-2.93;83.47;98000.25;10291249;28;97054;-71
2022/01/13 18:17:59;;;;;;;;;;;;;;;-3.08;82.50;98009.84;10285267;28;96863;-71
2022/01/13 18:23:01;;;;;;;;;;;;;;;-3.13;82.90;98015.84;10292814;28;97205;-72
2022/01/13 18:28:05;;;;;;;;;;;;;;;-3.17;82.94;98015.03;10292712;28;98079;-72
2022/01/13 18:33:09;;;;;;;;;;;;;;;-3.12;83.92;98017.56;10290100;28;97531;-73
2022/01/13 18:38:12;;;;;;;;;;;;;;;-3.21;82.71;98008.28;10288383;28;97245;-71
2022/01/13 18:43:19;;;;;;;;;;;;;;;-3.23;83.30;98010.88;10289772;28;97318;-74
2022/01/13 18:48:22;;;;;;;;;;;;;;;-3.19;83.61;97998.88;10280423;28;97133;-74
2022/01/13 18:53:26;;;;;;;;;;;;;;;-3.21;83.25;98008.28;10290923;28;97703;-74
2022/01/13 18:58:30;;;;;;;;;;;;;;;-3.25;82.06;98016.84;10289901;28;97024;-73
2022/01/13 19:03:32;;;;;;;;;;;;;;;-3.29;82.92;98017.75;10275826;28;97089;-72
2022/01/13 19:08:35;;;;;;;;;;;;;;;-3.41;83.26;98026.41;10290787;28;97016;-71
2022/01/13 19:13:39;;;;;;;;;;;;;;;-3.56;83.95;98023.19;10288663;28;97239;-73
2022/01/13 19:18:45;;;;;;;;;;;;;;;-3.59;83.20;98014.72;10283643;28;97264;-73
2022/01/13 19:23:48;;;;;;;;;;;;;;;-3.56;83.43;98009.56;10286581;28;97007;-74
2022/01/13 19:28:52;;;;;;;;;;;;;;;-3.47;83.17;98019.69;10285832;28;98598;-74
2022/01/13 19:33:55;;;;;;;;;;;;;;;-3.49;82.85;98020.56;10287344;28;97128;-76
2022/01/13 19:38:58;;;;;;;;;;;;;;;-3.49;83.02;98018.84;10286679;28;96975;-71
2022/01/13 19:44:03;;;;;;;;;;;;;;;-3.55;83.79;98024.03;10283650;28;97251;-74
2022/01/13 19:49:07;;;;;;;;;;;;;;;-3.57;83.30;98021.47;10284878;28;97312;-74
2022/01/13 19:54:10;;;;;;;;;;;;;;;-3.62;82.14;98017.28;10278263;28;98132;-74
2022/01/13 19:59:17;;;;;;;;;;;;;;;-3.66;82.82;98011.38;10284798;28;98104;-74
2022/01/13 20:04:20;;;;;;;;;;;;;;;-3.72;83.50;98003.78;10284591;28;98238;-74
2022/01/13 20:09:22;;;;;;;;;;;;;;;-3.79;83.02;98010.69;10284106;28;97603;-74
2022/01/13 20:14:26;;;;;;;;;;;;;;;-3.84;83.68;98017.53;10286226;28;97855;-74
2022/01/13 20:19:29;;;;;;;;;;;;;;;-3.89;84.09;98032.06;10288361;28;97363;-74
2022/01/13 20:24:31;;;;;;;;;;;;;;;-3.93;82.61;98033.78;10288660;28;98433;-75
2022/01/13 20:29:36;;;;;;;;;;;;;;;-3.92;83.14;98029.53;10288737;28;96961;-74
2022/01/13 20:34:39;;;;;;;;;;;;;;;-3.95;82.47;98029.53;10299304;28;98386;-75
2022/01/13 20:39:43;;;;;;;;;;;;;;;-3.98;82.91;98029.56;10284342;28;97212;-74
2022/01/13 20:44:47;;;;;;;;;;;;;;;-3.97;82.89;98021.06;10287876;28;97020;-74
2022/01/13 20:49:50;;;;;;;;;;;;;;;-4.00;83.58;98016.84;10288072;28;97223;-74
2022/01/13 20:54:53;;;;;;;;;;;;;;;-4.01;82.35;98014.31;10286189;28;97004;-75
2022/01/13 20:59:57;;;;;;;;;;;;;;;-4.07;83.29;98030.50;10287013;28;97235;-75
2022/01/13 21:04:59;;;;;;;;;;;;;;;-4.08;82.80;98028.00;10286714;28;97217;-75
2022/01/13 21:10:03;;;;;;;;;;;;;;;-4.15;82.99;98027.19;10285254;28;98571;-75
2022/01/13 21:15:08;;;;;;;;;;;;;;;-4.27;83.01;98023.03;10283439;28;97274;-75
2022/01/13 21:20:11;;;;;;;;;;;;;;;-4.22;82.55;98021.28;10283882;28;99663;-74
2022/01/13 21:25:13;;;;;;;;;;;;;;;-4.18;82.63;98015.28;10285191;28;97182;-74
2022/01/13 21:30:19;;;;;;;;;;;;;;;-4.19;82.49;98028.06;10285497;28;97368;-74
2022/01/13 21:35:22;;;;;;;;;;;;;;;-4.24;82.93;98011.94;10288628;28;97332;-74
2022/01/13 21:40:26;;;;;;;;;;;;;;;-4.32;83.02;98024.78;10281291;28;97164;-77
2022/01/13 21:45:30;;;;;;;;;;;;;;;-4.44;83.37;98017.22;10280081;28;101213;-75
2022/01/13 21:50:33;;;;;;;;;;;;;;;-4.41;82.46;98020.59;10282102;28;97872;-74
2022/01/13 21:55:50;;;;;;;;;;;;;;;-4.45;82.99;98026.59;10283822;28;99629;-74
2022/01/13 22:00:54;;;;;;;;;;;;;;;-4.50;82.88;98026.63;10279169;28;97075;-74
2022/01/13 22:05:57;;;;;;;;;;;;;;;-4.57;83.02;98019.88;10274011;28;97059;-74
2022/01/13 22:11:06;;;;;;;;;;;;;;;-4.61;82.74;98017.34;10290710;28;97086;-73
2022/01/13 22:16:10;;;;;;;;;;;;;;;-4.68;82.74;98014.84;10287924;28;102135;-74
2022/01/13 22:21:16;;;;;;;;;;;;;;;-4.72;82.79;98014.88;10288065;28;97252;-74
2022/01/13 22:26:19;;;;;;;;;;;;;;;-4.75;82.67;98030.19;10294465;28;99791;-74
2022/01/13 22:31:23;;;;;;;;;;;;;;;-4.81;82.12;98035.34;10290303;28;97107;-74
2022/01/13 22:36:25;;;;;;;;;;;;;;;-4.92;83.30;98033.72;10291705;28;97336;-75
2022/01/13 22:41:28;;;;;;;;;;;;;;;-4.91;82.68;98037.09;10290744;28;97542;-74
2022/01/13 22:46:32;;;;;;;;;;;;;;;-4.89;82.85;98033.66;10288866;28;97251;-74
2022/01/13 22:51:35;;;;;;;;;;;;;;;-4.91;82.99;98024.34;10287088;28;97274;-75
2022/01/13 22:56:38;;;;;;;;;;;;;;;-4.96;82.85;98024.41;10290726;28;97620;-74
2022/01/13 23:01:42;;;;;;;;;;;;;;;-5.05;82.48;98016.81;10290849;28;97062;-75
2022/01/13 23:06:45;;;;;;;;;;;;;;;-5.13;82.12;98018.53;10289493;28;97902;-74
2022/01/13 23:11:48;;;;;;;;;;;;;;;-5.18;82.78;98015.16;10291158;28;96927;-74
2022/01/13 23:22:16;;;;;;;;;;;;;;;-5.18;83.10;98004.97;10287772;28;97461;-74
2022/01/13 23:27:20;;;;;;;;;;;;;;;-5.16;82.86;98006.69;10286718;28;99441;-73
2022/01/13 23:32:24;;;;;;;;;;;;;;;-5.19;83.10;98004.16;10293096;28;97641;-73
2022/01/13 23:37:28;;;;;;;;;;;;;;;-5.20;82.91;98010.09;10287670;28;96843;-74
2022/01/13 23:42:31;;;;;;;;;;;;;;;-5.21;83.07;98007.53;10289501;28;96952;-73
2022/01/13 23:47:35;;;;;;;;;;;;;;;-5.29;82.44;98008.44;10293059;28;96891;-73
2022/01/13 23:52:38;;;;;;;;;;;;;;;-5.38;82.01;97998.28;10289070;28;97280;-73
2022/01/13 23:57:40;;;;;;;;;;;;;;;-5.45;82.41;97992.38;10288984;28;96983;-73
